Terminal Aerodrome Forecast
Issued by NWS Binghamton, NY

Home | Current Version | Previous Version | Text Only | Print | Product List | Glossary On
Versions: 1 2 3 4 5 6 7 8 9 10 11 12 13 14 15 16
000
FTUS41 KBGM 201700
TAFSYR
TAF
KSYR 201740Z 2018/2118 20005KT P6SM -SHRA OVC050
      TEMPO 2018/2022 2SM TSRA BKN025CB
     FM202200 16006KT P6SM OVC050
      TEMPO 2022/2102 5SM -SHRA
     FM210200 14005KT P6SM BKN050
      TEMPO 2108/2112 BKN025
     FM211600 25005KT P6SM -SHRA BKN035=

USA.gov is the U.S. government's official web portal to all federal, state and local government web resources and services.